sensor_id;sensor_type;location;lat;lon;timestamp;P1;durP1;ratioP1;P2;durP2;ratioP2
20142;SDS011;10509;46.476;7.134;2023-09-07T00:01:08;5.57;;;5.17;;
20142;SDS011;10509;46.476;7.134;2023-09-07T00:03:35;5.43;;;5.03;;
20142;SDS011;10509;46.476;7.134;2023-09-07T00:06:06;5.40;;;5.00;;
20142;SDS011;10509;46.476;7.134;2023-09-07T00:08:32;4.93;;;4.63;;
20142;SDS011;10509;46.476;7.134;2023-09-07T00:11:05;5.80;;;5.50;;
20142;SDS011;10509;46.476;7.134;2023-09-07T00:13:31;5.20;;;4.90;;
20142;SDS011;10509;46.476;7.134;2023-09-07T00:16:00;5.00;;;4.70;;
20142;SDS011;10509;46.476;7.134;2023-09-07T00:18:27;4.77;;;4.43;;
20142;SDS011;10509;46.476;7.134;2023-09-07T00:20:53;5.20;;;4.80;;
20142;SDS011;10509;46.476;7.134;2023-09-07T00:23:19;5.20;;;4.90;;
20142;SDS011;10509;46.476;7.134;2023-09-07T00:25:46;5.90;;;5.40;;
20142;SDS011;10509;46.476;7.134;2023-09-07T00:28:12;5.27;;;4.90;;
20142;SDS011;10509;46.476;7.134;2023-09-07T00:30:38;5.17;;;4.80;;
20142;SDS011;10509;46.476;7.134;2023-09-07T00:33:04;5.17;;;4.87;;
20142;SDS011;10509;46.476;7.134;2023-09-07T00:35:30;6.20;;;5.70;;
20142;SDS011;10509;46.476;7.134;2023-09-07T00:37:56;5.77;;;5.33;;
20142;SDS011;10509;46.476;7.134;2023-09-07T00:40:22;5.33;;;4.87;;
20142;SDS011;10509;46.476;7.134;2023-09-07T00:42:50;5.33;;;4.97;;
20142;SDS011;10509;46.476;7.134;2023-09-07T00:45:16;5.43;;;5.03;;
20142;SDS011;10509;46.476;7.134;2023-09-07T00:47:42;5.67;;;5.17;;
20142;SDS011;10509;46.476;7.134;2023-09-07T00:50:08;5.77;;;5.33;;
20142;SDS011;10509;46.476;7.134;2023-09-07T00:52:34;5.40;;;5.00;;
20142;SDS011;10509;46.476;7.134;2023-09-07T00:55:04;5.77;;;5.37;;
20142;SDS011;10509;46.476;7.134;2023-09-07T00:57:30;6.00;;;5.43;;
20142;SDS011;10509;46.476;7.134;2023-09-07T00:59:57;5.03;;;4.73;;
20142;SDS011;10509;46.476;7.134;2023-09-07T01:02:23;5.27;;;4.77;;
20142;SDS011;10509;46.476;7.134;2023-09-07T01:04:50;5.73;;;5.33;;
20142;SDS011;10509;46.476;7.134;2023-09-07T01:07:18;5.43;;;5.13;;
20142;SDS011;10509;46.476;7.134;2023-09-07T01:09:47;5.97;;;5.57;;
20142;SDS011;10509;46.476;7.134;2023-09-07T01:12:15;5.40;;;5.10;;
20142;SDS011;10509;46.476;7.134;2023-09-07T01:14:41;6.40;;;5.90;;
20142;SDS011;10509;46.476;7.134;2023-09-07T01:17:07;5.80;;;5.30;;
20142;SDS011;10509;46.476;7.134;2023-09-07T01:19:34;5.87;;;5.37;;
20142;SDS011;10509;46.476;7.134;2023-09-07T01:22:00;5.63;;;5.17;;
20142;SDS011;10509;46.476;7.134;2023-09-07T01:24:26;9.40;;;5.60;;
20142;SDS011;10509;46.476;7.134;2023-09-07T01:26:55;5.90;;;5.40;;
20142;SDS011;10509;46.476;7.134;2023-09-07T01:29:21;5.03;;;4.63;;
20142;SDS011;10509;46.476;7.134;2023-09-07T01:31:47;5.13;;;4.83;;
20142;SDS011;10509;46.476;7.134;2023-09-07T01:34:13;5.67;;;5.27;;
20142;SDS011;10509;46.476;7.134;2023-09-07T01:36:40;5.70;;;5.20;;
20142;SDS011;10509;46.476;7.134;2023-09-07T01:39:06;5.37;;;5.07;;
20142;SDS011;10509;46.476;7.134;2023-09-07T01:41:32;5.77;;;5.37;;
20142;SDS011;10509;46.476;7.134;2023-09-07T01:43:58;5.67;;;5.17;;
20142;SDS011;10509;46.476;7.134;2023-09-07T01:46:24;6.10;;;5.60;;
20142;SDS011;10509;46.476;7.134;2023-09-07T01:48:51;5.13;;;4.83;;
20142;SDS011;10509;46.476;7.134;2023-09-07T01:51:17;5.87;;;5.37;;
20142;SDS011;10509;46.476;7.134;2023-09-07T01:53:43;5.40;;;5.10;;
20142;SDS011;10509;46.476;7.134;2023-09-07T01:56:09;5.70;;;5.20;;
20142;SDS011;10509;46.476;7.134;2023-09-07T01:58:35;5.67;;;5.27;;
20142;SDS011;10509;46.476;7.134;2023-09-07T02:01:02;6.37;;;5.40;;
20142;SDS011;10509;46.476;7.134;2023-09-07T02:03:28;5.70;;;5.30;;
20142;SDS011;10509;46.476;7.134;2023-09-07T02:05:54;5.83;;;5.53;;
20142;SDS011;10509;46.476;7.134;2023-09-07T02:08:20;5.87;;;5.47;;
20142;SDS011;10509;46.476;7.134;2023-09-07T02:10:46;6.20;;;5.70;;
20142;SDS011;10509;46.476;7.134;2023-09-07T02:13:12;5.50;;;5.20;;
20142;SDS011;10509;46.476;7.134;2023-09-07T02:15:38;5.60;;;5.20;;
20142;SDS011;10509;46.476;7.134;2023-09-07T02:18:05;5.87;;;5.43;;
20142;SDS011;10509;46.476;7.134;2023-09-07T02:20:34;5.80;;;5.40;;
20142;SDS011;10509;46.476;7.134;2023-09-07T02:23:00;5.70;;;5.23;;
20142;SDS011;10509;46.476;7.134;2023-09-07T02:25:26;5.63;;;5.20;;
20142;SDS011;10509;46.476;7.134;2023-09-07T02:27:52;5.60;;;5.30;;
20142;SDS011;10509;46.476;7.134;2023-09-07T02:30:19;5.70;;;5.40;;
20142;SDS011;10509;46.476;7.134;2023-09-07T02:32:45;7.30;;;6.67;;
20142;SDS011;10509;46.476;7.134;2023-09-07T02:35:11;6.80;;;6.40;;
20142;SDS011;10509;46.476;7.134;2023-09-07T02:37:36;8.37;;;5.60;;
20142;SDS011;10509;46.476;7.134;2023-09-07T02:40:03;6.37;;;5.90;;
20142;SDS011;10509;46.476;7.134;2023-09-07T02:42:34;5.63;;;5.30;;
20142;SDS011;10509;46.476;7.134;2023-09-07T02:45:00;5.87;;;5.43;;
20142;SDS011;10509;46.476;7.134;2023-09-07T02:47:26;5.70;;;5.30;;
20142;SDS011;10509;46.476;7.134;2023-09-07T02:49:52;6.50;;;6.00;;
20142;SDS011;10509;46.476;7.134;2023-09-07T02:52:19;5.87;;;5.50;;
20142;SDS011;10509;46.476;7.134;2023-09-07T02:54:45;6.53;;;6.00;;
20142;SDS011;10509;46.476;7.134;2023-09-07T02:57:11;6.00;;;5.50;;
20142;SDS011;10509;46.476;7.134;2023-09-07T02:59:37;6.03;;;5.60;;
20142;SDS011;10509;46.476;7.134;2023-09-07T03:02:03;5.97;;;5.53;;
20142;SDS011;10509;46.476;7.134;2023-09-07T03:04:29;6.03;;;5.73;;
20142;SDS011;10509;46.476;7.134;2023-09-07T03:06:56;7.27;;;6.53;;
20142;SDS011;10509;46.476;7.134;2023-09-07T03:09:22;6.30;;;5.90;;
20142;SDS011;10509;46.476;7.134;2023-09-07T03:11:48;6.10;;;5.70;;
20142;SDS011;10509;46.476;7.134;2023-09-07T03:14:14;5.50;;;5.10;;
20142;SDS011;10509;46.476;7.134;2023-09-07T03:16:40;5.70;;;5.10;;
20142;SDS011;10509;46.476;7.134;2023-09-07T03:19:06;5.87;;;5.57;;
20142;SDS011;10509;46.476;7.134;2023-09-07T03:21:32;6.47;;;5.47;;
20142;SDS011;10509;46.476;7.134;2023-09-07T03:23:58;6.10;;;5.60;;
20142;SDS011;10509;46.476;7.134;2023-09-07T03:26:24;5.87;;;5.47;;
20142;SDS011;10509;46.476;7.134;2023-09-07T03:28:50;6.07;;;5.67;;
20142;SDS011;10509;46.476;7.134;2023-09-07T03:31:17;5.63;;;5.13;;
20142;SDS011;10509;46.476;7.134;2023-09-07T03:33:43;5.90;;;5.50;;
20142;SDS011;10509;46.476;7.134;2023-09-07T03:36:09;5.50;;;5.10;;
20142;SDS011;10509;46.476;7.134;2023-09-07T03:38:38;7.00;;;6.47;;
20142;SDS011;10509;46.476;7.134;2023-09-07T03:41:05;5.57;;;5.27;;
20142;SDS011;10509;46.476;7.134;2023-09-07T03:43:31;5.63;;;5.27;;
20142;SDS011;10509;46.476;7.134;2023-09-07T03:45:57;6.23;;;5.73;;
20142;SDS011;10509;46.476;7.134;2023-09-07T03:48:23;5.60;;;5.20;;
20142;SDS011;10509;46.476;7.134;2023-09-07T03:50:49;5.87;;;5.47;;
20142;SDS011;10509;46.476;7.134;2023-09-07T03:53:15;5.60;;;5.20;;
20142;SDS011;10509;46.476;7.134;2023-09-07T03:55:41;5.93;;;5.53;;
20142;SDS011;10509;46.476;7.134;2023-09-07T03:58:09;5.80;;;5.30;;
20142;SDS011;10509;46.476;7.134;2023-09-07T04:00:37;5.87;;;5.47;;
20142;SDS011;10509;46.476;7.134;2023-09-07T04:03:04;6.17;;;5.77;;
20142;SDS011;10509;46.476;7.134;2023-09-07T04:05:30;5.70;;;5.40;;
20142;SDS011;10509;46.476;7.134;2023-09-07T04:07:56;6.00;;;5.60;;
20142;SDS011;10509;46.476;7.134;2023-09-07T04:10:22;6.73;;;6.13;;
20142;SDS011;10509;46.476;7.134;2023-09-07T04:12:48;6.47;;;6.07;;
20142;SDS011;10509;46.476;7.134;2023-09-07T04:15:14;6.50;;;6.00;;
20142;SDS011;10509;46.476;7.134;2023-09-07T04:17:40;6.70;;;6.20;;
20142;SDS011;10509;46.476;7.134;2023-09-07T04:20:07;7.30;;;6.70;;
20142;SDS011;10509;46.476;7.134;2023-09-07T04:22:34;5.87;;;5.47;;
20142;SDS011;10509;46.476;7.134;2023-09-07T04:25:00;5.70;;;5.27;;
20142;SDS011;10509;46.476;7.134;2023-09-07T04:27:26;5.87;;;5.47;;
20142;SDS011;10509;46.476;7.134;2023-09-07T04:29:52;6.40;;;5.97;;
20142;SDS011;10509;46.476;7.134;2023-09-07T04:32:18;7.33;;;5.60;;
20142;SDS011;10509;46.476;7.134;2023-09-07T04:34:44;6.93;;;5.63;;
20142;SDS011;10509;46.476;7.134;2023-09-07T04:37:11;5.80;;;5.30;;
20142;SDS011;10509;46.476;7.134;2023-09-07T04:39:37;5.57;;;5.20;;
20142;SDS011;10509;46.476;7.134;2023-09-07T04:42:05;6.40;;;5.77;;
20142;SDS011;10509;46.476;7.134;2023-09-07T04:44:31;6.60;;;6.10;;
20142;SDS011;10509;46.476;7.134;2023-09-07T04:46:57;5.90;;;5.50;;
20142;SDS011;10509;46.476;7.134;2023-09-07T04:49:23;6.03;;;5.43;;
20142;SDS011;10509;46.476;7.134;2023-09-07T04:51:52;5.87;;;4.90;;
20142;SDS011;10509;46.476;7.134;2023-09-07T04:54:18;5.90;;;5.30;;
20142;SDS011;10509;46.476;7.134;2023-09-07T04:56:44;5.97;;;5.47;;
20142;SDS011;10509;46.476;7.134;2023-09-07T04:59:10;5.77;;;5.30;;
20142;SDS011;10509;46.476;7.134;2023-09-07T05:01:36;6.13;;;5.70;;
20142;SDS011;10509;46.476;7.134;2023-09-07T05:04:02;5.90;;;5.50;;
20142;SDS011;10509;46.476;7.134;2023-09-07T05:06:29;5.70;;;5.30;;
20142;SDS011;10509;46.476;7.134;2023-09-07T05:08:55;5.70;;;5.30;;
20142;SDS011;10509;46.476;7.134;2023-09-07T05:11:21;5.33;;;5.03;;
20142;SDS011;10509;46.476;7.134;2023-09-07T05:13:47;5.90;;;5.30;;
20142;SDS011;10509;46.476;7.134;2023-09-07T05:16:13;5.63;;;5.13;;
20142;SDS011;10509;46.476;7.134;2023-09-07T05:18:40;6.60;;;6.00;;
20142;SDS011;10509;46.476;7.134;2023-09-07T05:21:16;6.93;;;5.77;;
20142;SDS011;10509;46.476;7.134;2023-09-07T05:23:42;6.30;;;5.77;;
20142;SDS011;10509;46.476;7.134;2023-09-07T05:26:08;6.63;;;6.23;;
20142;SDS011;10509;46.476;7.134;2023-09-07T05:28:34;6.83;;;6.43;;
20142;SDS011;10509;46.476;7.134;2023-09-07T05:31:00;6.83;;;6.20;;
20142;SDS011;10509;46.476;7.134;2023-09-07T05:33:26;6.57;;;5.77;;
20142;SDS011;10509;46.476;7.134;2023-09-07T05:35:52;6.47;;;5.97;;
20142;SDS011;10509;46.476;7.134;2023-09-07T05:38:18;7.10;;;6.40;;
20142;SDS011;10509;46.476;7.134;2023-09-07T05:40:44;8.27;;;5.90;;
20142;SDS011;10509;46.476;7.134;2023-09-07T05:43:11;6.43;;;5.83;;
20142;SDS011;10509;46.476;7.134;2023-09-07T05:45:38;7.07;;;6.37;;
20142;SDS011;10509;46.476;7.134;2023-09-07T05:48:05;6.73;;;6.27;;
20142;SDS011;10509;46.476;7.134;2023-09-07T05:50:33;6.20;;;5.80;;
20142;SDS011;10509;46.476;7.134;2023-09-07T05:52:59;5.93;;;5.53;;
20142;SDS011;10509;46.476;7.134;2023-09-07T05:55:25;6.33;;;5.90;;
20142;SDS011;10509;46.476;7.134;2023-09-07T05:57:51;5.47;;;5.17;;
20142;SDS011;10509;46.476;7.134;2023-09-07T06:00:17;6.90;;;6.40;;
20142;SDS011;10509;46.476;7.134;2023-09-07T06:02:44;5.97;;;5.30;;
20142;SDS011;10509;46.476;7.134;2023-09-07T06:05:10;6.57;;;5.97;;
20142;SDS011;10509;46.476;7.134;2023-09-07T06:07:36;6.20;;;5.80;;
20142;SDS011;10509;46.476;7.134;2023-09-07T06:10:02;5.77;;;5.37;;
20142;SDS011;10509;46.476;7.134;2023-09-07T06:12:30;5.90;;;5.50;;
20142;SDS011;10509;46.476;7.134;2023-09-07T06:14:56;5.33;;;4.90;;
20142;SDS011;10509;46.476;7.134;2023-09-07T06:17:22;5.60;;;5.13;;
20142;SDS011;10509;46.476;7.134;2023-09-07T06:19:48;6.27;;;4.93;;
20142;SDS011;10509;46.476;7.134;2023-09-07T06:22:14;6.27;;;4.80;;
20142;SDS011;10509;46.476;7.134;2023-09-07T06:24:40;5.13;;;4.67;;
20142;SDS011;10509;46.476;7.134;2023-09-07T06:27:06;5.30;;;4.90;;
20142;SDS011;10509;46.476;7.134;2023-09-07T06:29:32;5.87;;;5.40;;
20142;SDS011;10509;46.476;7.134;2023-09-07T06:31:58;5.33;;;4.93;;
20142;SDS011;10509;46.476;7.134;2023-09-07T06:34:24;5.13;;;4.63;;
20142;SDS011;10509;46.476;7.134;2023-09-07T06:36:51;5.30;;;4.97;;
20142;SDS011;10509;46.476;7.134;2023-09-07T06:39:17;5.23;;;4.73;;
20142;SDS011;10509;46.476;7.134;2023-09-07T06:41:45;5.10;;;4.70;;
20142;SDS011;10509;46.476;7.134;2023-09-07T06:44:11;6.20;;;5.23;;
20142;SDS011;10509;46.476;7.134;2023-09-07T06:46:37;5.68;;;4.80;;
20142;SDS011;10509;46.476;7.134;2023-09-07T06:49:03;5.40;;;4.65;;
20142;SDS011;10509;46.476;7.134;2023-09-07T06:51:32;5.55;;;5.15;;
20142;SDS011;10509;46.476;7.134;2023-09-07T06:53:58;5.18;;;4.68;;
20142;SDS011;10509;46.476;7.134;2023-09-07T06:56:24;5.40;;;4.85;;
20142;SDS011;10509;46.476;7.134;2023-09-07T06:58:51;5.55;;;5.03;;
20142;SDS011;10509;46.476;7.134;2023-09-07T07:01:18;5.10;;;4.63;;
20142;SDS011;10509;46.476;7.134;2023-09-07T07:03:44;5.45;;;4.45;;
20142;SDS011;10509;46.476;7.134;2023-09-07T07:06:10;5.20;;;4.60;;
20142;SDS011;10509;46.476;7.134;2023-09-07T07:08:36;4.65;;;4.35;;
20142;SDS011;10509;46.476;7.134;2023-09-07T07:11:02;4.97;;;4.57;;
20142;SDS011;10509;46.476;7.134;2023-09-07T07:13:28;4.47;;;4.07;;
20142;SDS011;10509;46.476;7.134;2023-09-07T07:15:54;4.25;;;3.95;;
20142;SDS011;10509;46.476;7.134;2023-09-07T07:18:20;4.50;;;4.20;;
20142;SDS011;10509;46.476;7.134;2023-09-07T07:20:47;4.78;;;4.47;;
20142;SDS011;10509;46.476;7.134;2023-09-07T07:23:15;5.75;;;4.53;;
20142;SDS011;10509;46.476;7.134;2023-09-07T07:25:41;4.68;;;4.35;;
20142;SDS011;10509;46.476;7.134;2023-09-07T07:28:07;6.18;;;4.10;;
20142;SDS011;10509;46.476;7.134;2023-09-07T07:30:34;4.88;;;4.25;;
20142;SDS011;10509;46.476;7.134;2023-09-07T07:33:07;4.90;;;4.22;;
20142;SDS011;10509;46.476;7.134;2023-09-07T07:35:34;5.43;;;4.93;;
20142;SDS011;10509;46.476;7.134;2023-09-07T07:38:00;5.90;;;4.10;;
20142;SDS011;10509;46.476;7.134;2023-09-07T07:40:26;6.55;;;4.60;;
20142;SDS011;10509;46.476;7.134;2023-09-07T07:42:52;4.47;;;4.07;;
20142;SDS011;10509;46.476;7.134;2023-09-07T07:45:19;10.40;;;4.05;;
20142;SDS011;10509;46.476;7.134;2023-09-07T07:47:45;4.10;;;3.90;;
20142;SDS011;10509;46.476;7.134;2023-09-07T07:50:11;4.40;;;4.10;;
20142;SDS011;10509;46.476;7.134;2023-09-07T07:52:37;4.45;;;4.10;;
20142;SDS011;10509;46.476;7.134;2023-09-07T07:55:03;4.22;;;3.92;;
20142;SDS011;10509;46.476;7.134;2023-09-07T07:57:29;6.90;;;4.40;;
20142;SDS011;10509;46.476;7.134;2023-09-07T07:59:57;4.20;;;3.90;;
20142;SDS011;10509;46.476;7.134;2023-09-07T08:02:23;4.82;;;4.20;;
20142;SDS011;10509;46.476;7.134;2023-09-07T08:04:49;3.80;;;3.50;;
20142;SDS011;10509;46.476;7.134;2023-09-07T08:07:15;4.40;;;4.00;;
20142;SDS011;10509;46.476;7.134;2023-09-07T08:09:41;4.40;;;4.10;;
20142;SDS011;10509;46.476;7.134;2023-09-07T08:12:07;4.32;;;4.00;;
20142;SDS011;10509;46.476;7.134;2023-09-07T08:14:32;4.50;;;4.10;;
20142;SDS011;10509;46.476;7.134;2023-09-07T08:16:58;3.58;;;3.33;;
20142;SDS011;10509;46.476;7.134;2023-09-07T08:19:24;5.30;;;3.95;;
20142;SDS011;10509;46.476;7.134;2023-09-07T08:21:52;4.18;;;3.78;;
20142;SDS011;10509;46.476;7.134;2023-09-07T08:24:18;5.35;;;3.58;;
20142;SDS011;10509;46.476;7.134;2023-09-07T08:26:45;4.97;;;4.00;;
20142;SDS011;10509;46.476;7.134;2023-09-07T08:29:12;3.80;;;3.50;;
20142;SDS011;10509;46.476;7.134;2023-09-07T08:31:38;4.05;;;3.70;;
20142;SDS011;10509;46.476;7.134;2023-09-07T08:34:05;3.97;;;3.67;;
20142;SDS011;10509;46.476;7.134;2023-09-07T08:36:34;3.83;;;3.53;;
20142;SDS011;10509;46.476;7.134;2023-09-07T08:39:00;3.95;;;3.60;;
20142;SDS011;10509;46.476;7.134;2023-09-07T08:41:30;5.35;;;3.78;;
20142;SDS011;10509;46.476;7.134;2023-09-07T08:43:57;6.40;;;4.00;;
20142;SDS011;10509;46.476;7.134;2023-09-07T08:46:24;4.80;;;4.40;;
20142;SDS011;10509;46.476;7.134;2023-09-07T08:48:51;5.38;;;3.45;;
20142;SDS011;10509;46.476;7.134;2023-09-07T08:51:17;4.20;;;3.58;;
20142;SDS011;10509;46.476;7.134;2023-09-07T08:53:44;3.90;;;3.60;;
20142;SDS011;10509;46.476;7.134;2023-09-07T08:56:11;3.70;;;3.50;;
20142;SDS011;10509;46.476;7.134;2023-09-07T08:58:37;3.72;;;3.42;;
20142;SDS011;10509;46.476;7.134;2023-09-07T09:01:05;4.88;;;4.47;;
20142;SDS011;10509;46.476;7.134;2023-09-07T09:03:33;4.22;;;3.70;;
20142;SDS011;10509;46.476;7.134;2023-09-07T09:05:59;4.35;;;3.90;;
20142;SDS011;10509;46.476;7.134;2023-09-07T09:08:25;4.60;;;4.20;;
20142;SDS011;10509;46.476;7.134;2023-09-07T09:11:03;5.60;;;3.95;;
20142;SDS011;10509;46.476;7.134;2023-09-07T09:13:30;3.80;;;3.50;;
20142;SDS011;10509;46.476;7.134;2023-09-07T09:15:58;4.30;;;3.90;;
20142;SDS011;10509;46.476;7.134;2023-09-07T09:18:26;3.63;;;3.42;;
20142;SDS011;10509;46.476;7.134;2023-09-07T09:20:52;3.65;;;3.33;;
20142;SDS011;10509;46.476;7.134;2023-09-07T09:23:18;3.70;;;3.40;;
20142;SDS011;10509;46.476;7.134;2023-09-07T09:25:44;3.35;;;3.05;;
20142;SDS011;10509;46.476;7.134;2023-09-07T09:28:10;7.10;;;4.70;;
20142;SDS011;10509;46.476;7.134;2023-09-07T09:30:37;4.30;;;4.00;;
20142;SDS011;10509;46.476;7.134;2023-09-07T09:33:03;7.78;;;5.55;;
20142;SDS011;10509;46.476;7.134;2023-09-07T09:35:31;6.13;;;3.80;;
20142;SDS011;10509;46.476;7.134;2023-09-07T09:37:59;5.32;;;3.45;;
20142;SDS011;10509;46.476;7.134;2023-09-07T09:40:26;7.63;;;4.25;;
20142;SDS011;10509;46.476;7.134;2023-09-07T09:42:52;3.83;;;3.38;;
20142;SDS011;10509;46.476;7.134;2023-09-07T09:45:20;3.35;;;3.08;;
20142;SDS011;10509;46.476;7.134;2023-09-07T09:47:46;3.28;;;3.08;;
20142;SDS011;10509;46.476;7.134;2023-09-07T09:50:12;5.90;;;3.88;;
20142;SDS011;10509;46.476;7.134;2023-09-07T09:52:38;3.78;;;3.47;;
20142;SDS011;10509;46.476;7.134;2023-09-07T09:55:08;3.85;;;3.50;;
20142;SDS011;10509;46.476;7.134;2023-09-07T09:57:37;3.40;;;3.10;;
20142;SDS011;10509;46.476;7.134;2023-09-07T10:00:07;5.10;;;3.30;;
20142;SDS011;10509;46.476;7.134;2023-09-07T10:02:43;3.67;;;3.38;;
20142;SDS011;10509;46.476;7.134;2023-09-07T10:05:10;3.53;;;3.05;;
20142;SDS011;10509;46.476;7.134;2023-09-07T10:07:42;9.00;;;3.72;;
20142;SDS011;10509;46.476;7.134;2023-09-07T10:10:09;3.47;;;3.17;;
20142;SDS011;10509;46.476;7.134;2023-09-07T10:12:40;3.55;;;3.10;;
20142;SDS011;10509;46.476;7.134;2023-09-07T10:15:06;3.20;;;2.90;;
20142;SDS011;10509;46.476;7.134;2023-09-07T10:17:33;3.58;;;2.70;;
20142;SDS011;10509;46.476;7.134;2023-09-07T10:20:05;3.65;;;3.08;;
20142;SDS011;10509;46.476;7.134;2023-09-07T10:22:31;4.28;;;3.05;;
20142;SDS011;10509;46.476;7.134;2023-09-07T10:24:57;3.50;;;3.30;;
20142;SDS011;10509;46.476;7.134;2023-09-07T10:27:23;4.13;;;3.40;;
20142;SDS011;10509;46.476;7.134;2023-09-07T10:29:50;3.33;;;3.13;;
20142;SDS011;10509;46.476;7.134;2023-09-07T10:32:19;3.25;;;2.75;;
20142;SDS011;10509;46.476;7.134;2023-09-07T10:34:45;3.28;;;3.00;;
20142;SDS011;10509;46.476;7.134;2023-09-07T10:37:11;5.63;;;4.45;;
20142;SDS011;10509;46.476;7.134;2023-09-07T10:39:41;5.25;;;3.90;;
20142;SDS011;10509;46.476;7.134;2023-09-07T10:42:20;4.13;;;3.63;;
20142;SDS011;10509;46.476;7.134;2023-09-07T10:44:47;5.57;;;3.47;;
20142;SDS011;10509;46.476;7.134;2023-09-07T10:47:13;4.18;;;3.25;;
20142;SDS011;10509;46.476;7.134;2023-09-07T10:49:39;3.70;;;3.33;;
20142;SDS011;10509;46.476;7.134;2023-09-07T10:52:05;4.88;;;3.50;;
20142;SDS011;10509;46.476;7.134;2023-09-07T10:54:31;4.80;;;3.25;;
20142;SDS011;10509;46.476;7.134;2023-09-07T10:56:57;3.30;;;3.10;;
20142;SDS011;10509;46.476;7.134;2023-09-07T10:59:32;4.72;;;3.25;;
20142;SDS011;10509;46.476;7.134;2023-09-07T11:02:05;3.88;;;2.97;;
20142;SDS011;10509;46.476;7.134;2023-09-07T11:04:31;3.47;;;3.17;;
20142;SDS011;10509;46.476;7.134;2023-09-07T11:06:57;3.47;;;3.22;;
20142;SDS011;10509;46.476;7.134;2023-09-07T11:09:23;4.32;;;3.47;;
20142;SDS011;10509;46.476;7.134;2023-09-07T11:11:49;6.78;;;3.30;;
20142;SDS011;10509;46.476;7.134;2023-09-07T11:14:15;4.45;;;3.25;;
20142;SDS011;10509;46.476;7.134;2023-09-07T11:16:41;3.92;;;3.20;;
20142;SDS011;10509;46.476;7.134;2023-09-07T11:19:08;3.60;;;3.22;;
20142;SDS011;10509;46.476;7.134;2023-09-07T11:21:34;5.55;;;3.53;;
20142;SDS011;10509;46.476;7.134;2023-09-07T11:24:01;3.25;;;2.95;;
20142;SDS011;10509;46.476;7.134;2023-09-07T11:26:39;5.45;;;3.42;;
20142;SDS011;10509;46.476;7.134;2023-09-07T11:29:05;4.03;;;3.00;;
20142;SDS011;10509;46.476;7.134;2023-09-07T11:31:31;3.53;;;3.25;;
20142;SDS011;10509;46.476;7.134;2023-09-07T11:33:57;3.20;;;2.90;;
20142;SDS011;10509;46.476;7.134;2023-09-07T11:36:23;4.45;;;3.13;;
20142;SDS011;10509;46.476;7.134;2023-09-07T11:38:50;6.93;;;3.13;;
20142;SDS011;10509;46.476;7.134;2023-09-07T11:41:16;3.88;;;3.40;;
20142;SDS011;10509;46.476;7.134;2023-09-07T11:43:42;3.75;;;3.45;;
20142;SDS011;10509;46.476;7.134;2023-09-07T11:46:10;3.40;;;3.10;;
20142;SDS011;10509;46.476;7.134;2023-09-07T11:48:36;4.40;;;2.85;;
20142;SDS011;10509;46.476;7.134;2023-09-07T11:51:02;4.72;;;3.03;;
20142;SDS011;10509;46.476;7.134;2023-09-07T11:53:29;3.80;;;3.05;;
20142;SDS011;10509;46.476;7.134;2023-09-07T11:55:55;3.63;;;3.22;;
20142;SDS011;10509;46.476;7.134;2023-09-07T11:58:22;3.88;;;3.40;;
20142;SDS011;10509;46.476;7.134;2023-09-07T12:00:50;3.58;;;3.28;;
20142;SDS011;10509;46.476;7.134;2023-09-07T12:03:16;3.97;;;3.25;;
20142;SDS011;10509;46.476;7.134;2023-09-07T12:05:42;3.38;;;2.78;;
20142;SDS011;10509;46.476;7.134;2023-09-07T12:08:09;3.05;;;2.78;;
20142;SDS011;10509;46.476;7.134;2023-09-07T12:10:35;3.25;;;3.00;;
20142;SDS011;10509;46.476;7.134;2023-09-07T12:13:01;3.80;;;3.15;;
20142;SDS011;10509;46.476;7.134;2023-09-07T12:15:27;3.83;;;2.85;;
20142;SDS011;10509;46.476;7.134;2023-09-07T12:17:53;3.70;;;3.10;;
20142;SDS011;10509;46.476;7.134;2023-09-07T12:20:20;3.92;;;2.95;;
20142;SDS011;10509;46.476;7.134;2023-09-07T12:22:46;4.07;;;2.72;;
20142;SDS011;10509;46.476;7.134;2023-09-07T12:25:14;3.65;;;3.33;;
20142;SDS011;10509;46.476;7.134;2023-09-07T12:27:40;3.85;;;2.95;;
20142;SDS011;10509;46.476;7.134;2023-09-07T12:30:08;3.60;;;2.97;;
20142;SDS011;10509;46.476;7.134;2023-09-07T12:32:37;3.97;;;3.13;;
20142;SDS011;10509;46.476;7.134;2023-09-07T12:35:04;3.05;;;2.85;;
20142;SDS011;10509;46.476;7.134;2023-09-07T12:37:33;4.00;;;2.65;;
20142;SDS011;10509;46.476;7.134;2023-09-07T12:39:59;5.82;;;2.85;;
20142;SDS011;10509;46.476;7.134;2023-09-07T12:42:25;3.22;;;2.92;;
20142;SDS011;10509;46.476;7.134;2023-09-07T12:44:51;4.50;;;3.05;;
20142;SDS011;10509;46.476;7.134;2023-09-07T12:47:17;3.72;;;3.50;;
20142;SDS011;10509;46.476;7.134;2023-09-07T12:49:43;3.08;;;2.78;;
20142;SDS011;10509;46.476;7.134;2023-09-07T12:52:09;3.75;;;3.03;;
20142;SDS011;10509;46.476;7.134;2023-09-07T12:54:36;2.95;;;2.70;;
20142;SDS011;10509;46.476;7.134;2023-09-07T12:57:03;4.93;;;2.85;;
20142;SDS011;10509;46.476;7.134;2023-09-07T12:59:29;3.88;;;2.83;;
20142;SDS011;10509;46.476;7.134;2023-09-07T13:01:55;5.32;;;3.80;;
20142;SDS011;10509;46.476;7.134;2023-09-07T13:04:21;3.33;;;3.03;;
20142;SDS011;10509;46.476;7.134;2023-09-07T13:06:47;3.42;;;3.17;;
20142;SDS011;10509;46.476;7.134;2023-09-07T13:09:13;4.45;;;3.65;;
20142;SDS011;10509;46.476;7.134;2023-09-07T13:11:39;3.13;;;2.92;;
20142;SDS011;10509;46.476;7.134;2023-09-07T13:14:05;3.70;;;3.30;;
20142;SDS011;10509;46.476;7.134;2023-09-07T13:16:33;3.38;;;3.17;;
20142;SDS011;10509;46.476;7.134;2023-09-07T13:18:59;3.55;;;3.28;;
20142;SDS011;10509;46.476;7.134;2023-09-07T13:21:25;3.35;;;3.05;;
20142;SDS011;10509;46.476;7.134;2023-09-07T13:23:51;3.67;;;3.00;;
20142;SDS011;10509;46.476;7.134;2023-09-07T13:26:17;3.75;;;3.30;;
20142;SDS011;10509;46.476;7.134;2023-09-07T13:28:43;3.25;;;2.97;;
20142;SDS011;10509;46.476;7.134;2023-09-07T13:31:09;4.07;;;3.67;;
20142;SDS011;10509;46.476;7.134;2023-09-07T13:33:35;4.25;;;3.83;;
20142;SDS011;10509;46.476;7.134;2023-09-07T13:36:01;3.60;;;3.30;;
20142;SDS011;10509;46.476;7.134;2023-09-07T13:38:27;4.45;;;3.75;;
20142;SDS011;10509;46.476;7.134;2023-09-07T13:40:53;5.20;;;3.25;;
20142;SDS011;10509;46.476;7.134;2023-09-07T13:43:19;3.80;;;3.55;;
20142;SDS011;10509;46.476;7.134;2023-09-07T13:45:45;4.15;;;3.60;;
20142;SDS011;10509;46.476;7.134;2023-09-07T13:48:11;3.90;;;3.50;;
20142;SDS011;10509;46.476;7.134;2023-09-07T13:50:38;3.90;;;3.60;;
20142;SDS011;10509;46.476;7.134;2023-09-07T13:53:04;4.28;;;3.85;;
20142;SDS011;10509;46.476;7.134;2023-09-07T13:55:30;3.55;;;3.25;;
20142;SDS011;10509;46.476;7.134;2023-09-07T13:57:56;5.00;;;3.30;;
20142;SDS011;10509;46.476;7.134;2023-09-07T14:00:22;6.55;;;3.30;;
20142;SDS011;10509;46.476;7.134;2023-09-07T14:02:48;5.85;;;3.70;;
20142;SDS011;10509;46.476;7.134;2023-09-07T14:05:14;4.35;;;3.95;;
20142;SDS011;10509;46.476;7.134;2023-09-07T14:07:40;4.45;;;3.47;;
20142;SDS011;10509;46.476;7.134;2023-09-07T14:10:07;3.85;;;3.63;;
20142;SDS011;10509;46.476;7.134;2023-09-07T14:12:33;3.88;;;3.13;;
20142;SDS011;10509;46.476;7.134;2023-09-07T14:14:59;4.65;;;3.85;;
20142;SDS011;10509;46.476;7.134;2023-09-07T14:17:25;4.22;;;3.85;;
20142;SDS011;10509;46.476;7.134;2023-09-07T14:19:51;4.05;;;3.38;;
20142;SDS011;10509;46.476;7.134;2023-09-07T14:22:17;3.95;;;3.55;;
20142;SDS011;10509;46.476;7.134;2023-09-07T14:24:43;3.72;;;3.53;;
20142;SDS011;10509;46.476;7.134;2023-09-07T14:27:09;3.83;;;3.53;;
20142;SDS011;10509;46.476;7.134;2023-09-07T14:29:35;5.55;;;3.47;;
20142;SDS011;10509;46.476;7.134;2023-09-07T14:32:02;6.32;;;3.90;;
20142;SDS011;10509;46.476;7.134;2023-09-07T14:34:29;3.83;;;3.60;;
20142;SDS011;10509;46.476;7.134;2023-09-07T14:36:55;3.97;;;3.60;;
20142;SDS011;10509;46.476;7.134;2023-09-07T14:39:21;4.38;;;4.00;;
20142;SDS011;10509;46.476;7.134;2023-09-07T14:41:49;4.10;;;3.80;;
20142;SDS011;10509;46.476;7.134;2023-09-07T14:44:17;3.83;;;3.50;;